sensor_id;sensor_type;location;lat;lon;timestamp;temperature;humidity
1383;DHT22;685;47.196;11.880;2023-03-01T00:00:05;-0.20;99.90
1383;DHT22;685;47.196;11.880;2023-03-01T00:02:33;-0.10;99.90
1383;DHT22;685;47.196;11.880;2023-03-01T00:05:00;-0.10;99.90
1383;DHT22;685;47.196;11.880;2023-03-01T00:07:27;-0.10;99.90
1383;DHT22;685;47.196;11.880;2023-03-01T00:09:54;-0.10;99.90
1383;DHT22;685;47.196;11.880;2023-03-01T00:12:21;-0.30;99.90
1383;DHT22;685;47.196;11.880;2023-03-01T00:14:48;-0.40;99.90
1383;DHT22;685;47.196;11.880;2023-03-01T00:17:16;-0.30;99.90
1383;DHT22;685;47.196;11.880;2023-03-01T00:19:43;-0.10;99.90
1383;DHT22;685;47.196;11.880;2023-03-01T00:22:10;-0.20;99.90
1383;DHT22;685;47.196;11.880;2023-03-01T00:24:37;-0.20;99.90
1383;DHT22;685;47.196;11.880;2023-03-01T00:27:04;-0.10;99.90
1383;DHT22;685;47.196;11.880;2023-03-01T00:29:34;-0.10;99.90
1383;DHT22;685;47.196;11.880;2023-03-01T00:32:01;-0.20;99.90
1383;DHT22;685;47.196;11.880;2023-03-01T00:34:29;-0.50;99.90
1383;DHT22;685;47.196;11.880;2023-03-01T00:36:56;-0.80;99.90
1383;DHT22;685;47.196;11.880;2023-03-01T00:39:30;-0.50;99.90
1383;DHT22;685;47.196;11.880;2023-03-01T00:41:57;-0.40;99.90
1383;DHT22;685;47.196;11.880;2023-03-01T00:44:24;-0.20;99.90
1383;DHT22;685;47.196;11.880;2023-03-01T00:46:51;-0.10;99.90
1383;DHT22;685;47.196;11.880;2023-03-01T00:49:18;-0.20;99.90
1383;DHT22;685;47.196;11.880;2023-03-01T00:51:46;-0.20;99.90
1383;DHT22;685;47.196;11.880;2023-03-01T00:54:13;-0.20;99.90
1383;DHT22;685;47.196;11.880;2023-03-01T00:56:40;-0.10;99.90
1383;DHT22;685;47.196;11.880;2023-03-01T00:59:06;-0.10;99.90
1383;DHT22;685;47.196;11.880;2023-03-01T01:01:33;-0.10;99.90
1383;DHT22;685;47.196;11.880;2023-03-01T01:04:02;0.00;99.90
1383;DHT22;685;47.196;11.880;2023-03-01T01:06:30;0.00;99.90
1383;DHT22;685;47.196;11.880;2023-03-01T01:08:59;0.10;99.90
1383;DHT22;685;47.196;11.880;2023-03-01T01:11:28;0.10;99.90
1383;DHT22;685;47.196;11.880;2023-03-01T01:13:56;0.10;99.90
1383;DHT22;685;47.196;11.880;2023-03-01T01:16:25;0.30;99.90
1383;DHT22;685;47.196;11.880;2023-03-01T01:18:52;0.30;99.90
1383;DHT22;685;47.196;11.880;2023-03-01T01:21:21;0.30;99.90
1383;DHT22;685;47.196;11.880;2023-03-01T01:23:49;0.20;99.90
1383;DHT22;685;47.196;11.880;2023-03-01T01:26:20;0.00;99.90
1383;DHT22;685;47.196;11.880;2023-03-01T01:28:47;-0.10;99.90
1383;DHT22;685;47.196;11.880;2023-03-01T01:31:15;0.00;99.90
1383;DHT22;685;47.196;11.880;2023-03-01T01:33:42;0.10;99.90
1383;DHT22;685;47.196;11.880;2023-03-01T01:36:09;0.00;99.90
1383;DHT22;685;47.196;11.880;2023-03-01T01:38:37;-0.20;99.90
1383;DHT22;685;47.196;11.880;2023-03-01T01:41:04;-0.50;99.90
1383;DHT22;685;47.196;11.880;2023-03-01T01:43:34;-0.30;99.90
1383;DHT22;685;47.196;11.880;2023-03-01T01:46:03;-0.10;99.90
1383;DHT22;685;47.196;11.880;2023-03-01T01:48:37;0.10;99.90
1383;DHT22;685;47.196;11.880;2023-03-01T01:51:09;0.10;99.90
1383;DHT22;685;47.196;11.880;2023-03-01T01:53:38;0.10;99.90
1383;DHT22;685;47.196;11.880;2023-03-01T01:56:08;0.10;99.90
1383;DHT22;685;47.196;11.880;2023-03-01T01:58:41;0.10;99.90
1383;DHT22;685;47.196;11.880;2023-03-01T02:01:09;0.10;99.90
1383;DHT22;685;47.196;11.880;2023-03-01T02:03:39;0.10;99.90
1383;DHT22;685;47.196;11.880;2023-03-01T02:06:12;0.10;99.90
1383;DHT22;685;47.196;11.880;2023-03-01T02:08:42;0.10;99.90
1383;DHT22;685;47.196;11.880;2023-03-01T02:11:11;0.20;99.90
1383;DHT22;685;47.196;11.880;2023-03-01T02:13:41;0.20;99.90
1383;DHT22;685;47.196;11.880;2023-03-01T02:16:10;0.20;99.90
1383;DHT22;685;47.196;11.880;2023-03-01T02:18:38;0.30;99.90
1383;DHT22;685;47.196;11.880;2023-03-01T02:21:15;0.30;99.90
1383;DHT22;685;47.196;11.880;2023-03-01T02:23:44;0.20;99.90
1383;DHT22;685;47.196;11.880;2023-03-01T02:26:18;0.20;99.90
1383;DHT22;685;47.196;11.880;2023-03-01T02:28:47;0.10;99.90
1383;DHT22;685;47.196;11.880;2023-03-01T02:31:17;-0.10;99.90
1383;DHT22;685;47.196;11.880;2023-03-01T02:34:02;-0.20;99.90
1383;DHT22;685;47.196;11.880;2023-03-01T02:36:35;-0.20;99.90
1383;DHT22;685;47.196;11.880;2023-03-01T02:39:06;-0.30;99.90
1383;DHT22;685;47.196;11.880;2023-03-01T02:41:43;-0.40;99.90
1383;DHT22;685;47.196;11.880;2023-03-01T02:44:12;-0.50;99.90
1383;DHT22;685;47.196;11.880;2023-03-01T02:46:43;-0.60;99.90
1383;DHT22;685;47.196;11.880;2023-03-01T02:49:22;-0.30;99.90
1383;DHT22;685;47.196;11.880;2023-03-01T02:52:11;-0.10;99.90
1383;DHT22;685;47.196;11.880;2023-03-01T02:54:44;-0.10;99.90
1383;DHT22;685;47.196;11.880;2023-03-01T02:57:13;-0.30;99.90
1383;DHT22;685;47.196;11.880;2023-03-01T02:59:42;-0.50;99.90
1383;DHT22;685;47.196;11.880;2023-03-01T03:02:20;-0.50;99.90
1383;DHT22;685;47.196;11.880;2023-03-01T03:05:02;-0.30;99.90
1383;DHT22;685;47.196;11.880;2023-03-01T03:07:30;-0.20;99.90
1383;DHT22;685;47.196;11.880;2023-03-01T03:09:57;-0.60;99.90
1383;DHT22;685;47.196;11.880;2023-03-01T03:12:24;-0.70;99.90
1383;DHT22;685;47.196;11.880;2023-03-01T03:14:52;-0.50;99.90
1383;DHT22;685;47.196;11.880;2023-03-01T03:17:19;-0.30;99.90
1383;DHT22;685;47.196;11.880;2023-03-01T03:19:46;-0.40;99.90
1383;DHT22;685;47.196;11.880;2023-03-01T03:22:13;-0.20;99.90
1383;DHT22;685;47.196;11.880;2023-03-01T03:24:39;-0.50;99.90
1383;DHT22;685;47.196;11.880;2023-03-01T03:27:07;-0.50;99.90
1383;DHT22;685;47.196;11.880;2023-03-01T03:29:34;-0.60;99.90
1383;DHT22;685;47.196;11.880;2023-03-01T03:32:02;-0.60;99.90
1383;DHT22;685;47.196;11.880;2023-03-01T03:34:29;-0.50;99.90
1383;DHT22;685;47.196;11.880;2023-03-01T03:36:57;-0.40;99.90
1383;DHT22;685;47.196;11.880;2023-03-01T03:39:25;-0.40;99.90
1383;DHT22;685;47.196;11.880;2023-03-01T03:41:53;-0.40;99.90
1383;DHT22;685;47.196;11.880;2023-03-01T03:44:20;-0.30;99.90
1383;DHT22;685;47.196;11.880;2023-03-01T03:46:47;-0.30;99.90
1383;DHT22;685;47.196;11.880;2023-03-01T03:49:15;-0.30;99.90
1383;DHT22;685;47.196;11.880;2023-03-01T03:51:42;-0.40;99.90
1383;DHT22;685;47.196;11.880;2023-03-01T03:54:11;-0.50;99.90
1383;DHT22;685;47.196;11.880;2023-03-01T03:56:38;-0.50;99.90
1383;DHT22;685;47.196;11.880;2023-03-01T03:59:05;-0.40;99.90
1383;DHT22;685;47.196;11.880;2023-03-01T04:01:32;-0.30;99.90
1383;DHT22;685;47.196;11.880;2023-03-01T04:03:58;-0.40;99.90
1383;DHT22;685;47.196;11.880;2023-03-01T04:06:30;-0.30;99.90
1383;DHT22;685;47.196;11.880;2023-03-01T04:08:57;-0.20;99.90
1383;DHT22;685;47.196;11.880;2023-03-01T04:11:26;-0.20;99.90
1383;DHT22;685;47.196;11.880;2023-03-01T04:13:54;-0.30;99.90
1383;DHT22;685;47.196;11.880;2023-03-01T04:16:22;-0.30;99.90
1383;DHT22;685;47.196;11.880;2023-03-01T04:18:49;-0.20;99.90
1383;DHT22;685;47.196;11.880;2023-03-01T04:21:16;-0.20;99.90
1383;DHT22;685;47.196;11.880;2023-03-01T04:23:44;-0.30;99.90
1383;DHT22;685;47.196;11.880;2023-03-01T04:26:11;-0.40;99.90
1383;DHT22;685;47.196;11.880;2023-03-01T04:28:39;-0.30;99.90
1383;DHT22;685;47.196;11.880;2023-03-01T04:31:10;-0.30;99.90
1383;DHT22;685;47.196;11.880;2023-03-01T04:33:39;-0.30;99.90
1383;DHT22;685;47.196;11.880;2023-03-01T04:36:08;-0.30;99.90
1383;DHT22;685;47.196;11.880;2023-03-01T04:38:35;-0.30;99.90
1383;DHT22;685;47.196;11.880;2023-03-01T04:41:06;-0.40;99.90
1383;DHT22;685;47.196;11.880;2023-03-01T04:43:33;-0.40;99.90
1383;DHT22;685;47.196;11.880;2023-03-01T04:46:01;-0.40;99.90
1383;DHT22;685;47.196;11.880;2023-03-01T04:48:29;-0.40;99.90
1383;DHT22;685;47.196;11.880;2023-03-01T04:50:57;-0.40;99.90
1383;DHT22;685;47.196;11.880;2023-03-01T04:53:25;-0.40;99.90
1383;DHT22;685;47.196;11.880;2023-03-01T04:55:52;-0.50;99.90
1383;DHT22;685;47.196;11.880;2023-03-01T04:58:21;-0.50;99.90
1383;DHT22;685;47.196;11.880;2023-03-01T05:00:48;-0.60;99.90
1383;DHT22;685;47.196;11.880;2023-03-01T05:03:15;-0.80;99.90
1383;DHT22;685;47.196;11.880;2023-03-01T05:05:44;-1.10;99.90
1383;DHT22;685;47.196;11.880;2023-03-01T05:08:12;-1.20;99.90
1383;DHT22;685;47.196;11.880;2023-03-01T05:10:43;-1.20;99.90
1383;DHT22;685;47.196;11.880;2023-03-01T05:13:12;-1.30;99.90
1383;DHT22;685;47.196;11.880;2023-03-01T05:15:42;-1.40;99.90
1383;DHT22;685;47.196;11.880;2023-03-01T05:18:08;-1.20;99.90
1383;DHT22;685;47.196;11.880;2023-03-01T05:20:37;-1.20;99.90
1383;DHT22;685;47.196;11.880;2023-03-01T05:23:04;-0.90;99.90
1383;DHT22;685;47.196;11.880;2023-03-01T05:25:32;-0.80;99.90
1383;DHT22;685;47.196;11.880;2023-03-01T05:27:59;-0.80;99.90
1383;DHT22;685;47.196;11.880;2023-03-01T05:30:30;-0.80;99.90
1383;DHT22;685;47.196;11.880;2023-03-01T05:32:58;-0.90;99.90
1383;DHT22;685;47.196;11.880;2023-03-01T05:35:25;-0.80;99.90
1383;DHT22;685;47.196;11.880;2023-03-01T05:37:52;-0.70;99.90
1383;DHT22;685;47.196;11.880;2023-03-01T05:40:21;-0.70;99.90
1383;DHT22;685;47.196;11.880;2023-03-01T05:42:52;-0.80;99.90
1383;DHT22;685;47.196;11.880;2023-03-01T05:45:19;-0.80;99.90
1383;DHT22;685;47.196;11.880;2023-03-01T05:47:47;-1.10;99.90
1383;DHT22;685;47.196;11.880;2023-03-01T05:50:17;-1.00;99.90
1383;DHT22;685;47.196;11.880;2023-03-01T05:52:46;-1.00;99.90
1383;DHT22;685;47.196;11.880;2023-03-01T05:55:14;-0.90;99.90
1383;DHT22;685;47.196;11.880;2023-03-01T05:57:41;-0.90;99.90
1383;DHT22;685;47.196;11.880;2023-03-01T06:00:11;-0.80;99.90
1383;DHT22;685;47.196;11.880;2023-03-01T06:02:38;-0.70;99.90
1383;DHT22;685;47.196;11.880;2023-03-01T06:05:07;-0.90;99.90
1383;DHT22;685;47.196;11.880;2023-03-01T06:07:36;-0.90;99.90
1383;DHT22;685;47.196;11.880;2023-03-01T06:10:04;-0.80;99.90
1383;DHT22;685;47.196;11.880;2023-03-01T06:12:32;-1.10;99.90
1383;DHT22;685;47.196;11.880;2023-03-01T06:14:59;-1.10;99.90
1383;DHT22;685;47.196;11.880;2023-03-01T06:17:29;-1.00;99.90
1383;DHT22;685;47.196;11.880;2023-03-01T06:19:56;-1.00;99.90
1383;DHT22;685;47.196;11.880;2023-03-01T06:22:23;-0.90;99.90
1383;DHT22;685;47.196;11.880;2023-03-01T06:24:52;-0.90;99.90
1383;DHT22;685;47.196;11.880;2023-03-01T06:27:18;-0.90;99.90
1383;DHT22;685;47.196;11.880;2023-03-01T06:29:45;-0.90;99.90
1383;DHT22;685;47.196;11.880;2023-03-01T06:32:12;-0.90;99.90
1383;DHT22;685;47.196;11.880;2023-03-01T06:34:39;-0.90;99.90
1383;DHT22;685;47.196;11.880;2023-03-01T06:37:06;-0.90;99.90
1383;DHT22;685;47.196;11.880;2023-03-01T06:39:34;-0.90;99.90
1383;DHT22;685;47.196;11.880;2023-03-01T06:42:02;-1.00;99.90
1383;DHT22;685;47.196;11.880;2023-03-01T06:44:29;-0.90;99.90
1383;DHT22;685;47.196;11.880;2023-03-01T06:46:56;-0.80;99.90
1383;DHT22;685;47.196;11.880;2023-03-01T06:49:23;-0.70;99.90
1383;DHT22;685;47.196;11.880;2023-03-01T06:51:50;-0.80;99.90
1383;DHT22;685;47.196;11.880;2023-03-01T06:54:17;-0.80;99.90
1383;DHT22;685;47.196;11.880;2023-03-01T06:56:46;-0.90;99.90
1383;DHT22;685;47.196;11.880;2023-03-01T06:59:16;-0.90;99.90
1383;DHT22;685;47.196;11.880;2023-03-01T07:01:43;-1.00;99.90
1383;DHT22;685;47.196;11.880;2023-03-01T07:04:10;-1.10;99.90
1383;DHT22;685;47.196;11.880;2023-03-01T07:06:37;-1.20;99.90
1383;DHT22;685;47.196;11.880;2023-03-01T07:09:04;-1.50;99.90
1383;DHT22;685;47.196;11.880;2023-03-01T07:11:31;-1.60;99.90
1383;DHT22;685;47.196;11.880;2023-03-01T07:13:57;-1.80;99.90
1383;DHT22;685;47.196;11.880;2023-03-01T07:16:27;-1.90;99.90
1383;DHT22;685;47.196;11.880;2023-03-01T07:18:54;-1.90;99.90
1383;DHT22;685;47.196;11.880;2023-03-01T07:21:21;-1.70;99.90
1383;DHT22;685;47.196;11.880;2023-03-01T07:23:48;-1.30;99.90
1383;DHT22;685;47.196;11.880;2023-03-01T07:26:15;-1.20;99.90
1383;DHT22;685;47.196;11.880;2023-03-01T07:28:42;-1.00;99.90
1383;DHT22;685;47.196;11.880;2023-03-01T07:31:09;-0.90;99.90
1383;DHT22;685;47.196;11.880;2023-03-01T07:33:37;-0.80;99.90
1383;DHT22;685;47.196;11.880;2023-03-01T07:36:05;-0.70;99.90
1383;DHT22;685;47.196;11.880;2023-03-01T07:38:32;-0.70;99.90
1383;DHT22;685;47.196;11.880;2023-03-01T07:41:00;-0.70;99.90
1383;DHT22;685;47.196;11.880;2023-03-01T07:43:27;-1.00;99.90
1383;DHT22;685;47.196;11.880;2023-03-01T07:45:54;-0.90;99.90
1383;DHT22;685;47.196;11.880;2023-03-01T07:48:21;-0.80;99.90
1383;DHT22;685;47.196;11.880;2023-03-01T07:50:49;-0.90;99.90
1383;DHT22;685;47.196;11.880;2023-03-01T07:53:16;-0.80;99.90
1383;DHT22;685;47.196;11.880;2023-03-01T07:55:43;-0.80;99.90
1383;DHT22;685;47.196;11.880;2023-03-01T07:58:10;-0.80;99.90
1383;DHT22;685;47.196;11.880;2023-03-01T08:00:36;-0.70;99.90
1383;DHT22;685;47.196;11.880;2023-03-01T08:03:03;-0.70;99.90
1383;DHT22;685;47.196;11.880;2023-03-01T08:05:30;-0.90;99.90
1383;DHT22;685;47.196;11.880;2023-03-01T08:07:58;-1.40;99.90
1383;DHT22;685;47.196;11.880;2023-03-01T08:10:25;-1.40;99.90
1383;DHT22;685;47.196;11.880;2023-03-01T08:12:52;-1.30;99.90
1383;DHT22;685;47.196;11.880;2023-03-01T08:15:19;-1.20;99.90
1383;DHT22;685;47.196;11.880;2023-03-01T08:17:49;-0.90;99.90
1383;DHT22;685;47.196;11.880;2023-03-01T08:20:16;-0.70;99.90
1383;DHT22;685;47.196;11.880;2023-03-01T08:22:43;-0.60;99.90
1383;DHT22;685;47.196;11.880;2023-03-01T08:25:11;-0.50;99.90
1383;DHT22;685;47.196;11.880;2023-03-01T08:27:38;-0.40;99.90
1383;DHT22;685;47.196;11.880;2023-03-01T08:30:06;-0.40;99.90
1383;DHT22;685;47.196;11.880;2023-03-01T08:32:36;-0.40;99.90
1383;DHT22;685;47.196;11.880;2023-03-01T08:35:04;-0.30;99.90
1383;DHT22;685;47.196;11.880;2023-03-01T08:37:31;-0.30;99.90
1383;DHT22;685;47.196;11.880;2023-03-01T08:39:58;-0.20;99.90
1383;DHT22;685;47.196;11.880;2023-03-01T08:42:27;-0.40;99.90
1383;DHT22;685;47.196;11.880;2023-03-01T08:44:54;-0.50;99.90
1383;DHT22;685;47.196;11.880;2023-03-01T08:47:22;-0.40;99.90
1383;DHT22;685;47.196;11.880;2023-03-01T08:49:49;-0.20;99.90
1383;DHT22;685;47.196;11.880;2023-03-01T08:52:16;0.00;99.90
1383;DHT22;685;47.196;11.880;2023-03-01T08:54:43;0.10;99.90
1383;DHT22;685;47.196;11.880;2023-03-01T08:57:10;0.20;99.90
1383;DHT22;685;47.196;11.880;2023-03-01T08:59:39;0.20;99.90
1383;DHT22;685;47.196;11.880;2023-03-01T09:02:16;0.20;99.90
1383;DHT22;685;47.196;11.880;2023-03-01T09:04:43;0.30;99.90
1383;DHT22;685;47.196;11.880;2023-03-01T09:07:11;0.40;99.90
1383;DHT22;685;47.196;11.880;2023-03-01T09:09:37;0.40;99.90
1383;DHT22;685;47.196;11.880;2023-03-01T09:12:05;0.50;99.90
1383;DHT22;685;47.196;11.880;2023-03-01T09:14:32;0.70;99.90
1383;DHT22;685;47.196;11.880;2023-03-01T09:17:00;0.80;99.90
1383;DHT22;685;47.196;11.880;2023-03-01T09:19:28;0.80;99.90
1383;DHT22;685;47.196;11.880;2023-03-01T09:21:55;0.90;99.90
1383;DHT22;685;47.196;11.880;2023-03-01T09:24:24;0.90;99.90
1383;DHT22;685;47.196;11.880;2023-03-01T09:26:53;1.00;99.90
1383;DHT22;685;47.196;11.880;2023-03-01T09:29:20;1.10;99.90
1383;DHT22;685;47.196;11.880;2023-03-01T09:31:47;1.00;99.90
1383;DHT22;685;47.196;11.880;2023-03-01T09:34:16;1.20;99.90
1383;DHT22;685;47.196;11.880;2023-03-01T09:36:48;1.30;99.90
1383;DHT22;685;47.196;11.880;2023-03-01T09:39:15;1.50;99.90
1383;DHT22;685;47.196;11.880;2023-03-01T09:41:46;1.40;99.90
1383;DHT22;685;47.196;11.880;2023-03-01T09:44:22;1.50;99.90
1383;DHT22;685;47.196;11.880;2023-03-01T09:46:50;1.40;99.90
1383;DHT22;685;47.196;11.880;2023-03-01T09:49:21;1.60;99.90
1383;DHT22;685;47.196;11.880;2023-03-01T09:51:57;1.60;99.90
1383;DHT22;685;47.196;11.880;2023-03-01T09:54:24;1.90;99.90
1383;DHT22;685;47.196;11.880;2023-03-01T09:57:05;2.00;99.90
1383;DHT22;685;47.196;11.880;2023-03-01T09:59:40;1.90;99.90
1383;DHT22;685;47.196;11.880;2023-03-01T10:02:24;2.00;99.90
1383;DHT22;685;47.196;11.880;2023-03-01T10:04:57;2.10;99.90
1383;DHT22;685;47.196;11.880;2023-03-01T10:07:32;1.90;99.90
1383;DHT22;685;47.196;11.880;2023-03-01T10:10:05;1.90;99.90
1383;DHT22;685;47.196;11.880;2023-03-01T10:12:34;2.10;99.90
1383;DHT22;685;47.196;11.880;2023-03-01T10:15:05;2.30;99.90
1383;DHT22;685;47.196;11.880;2023-03-01T10:17:38;2.40;99.90
1383;DHT22;685;47.196;11.880;2023-03-01T10:20:20;2.30;99.90
1383;DHT22;685;47.196;11.880;2023-03-01T10:22:47;2.30;99.90
1383;DHT22;685;47.196;11.880;2023-03-01T10:25:21;2.50;99.90
1383;DHT22;685;47.196;11.880;2023-03-01T10:27:52;2.60;99.90
1383;DHT22;685;47.196;11.880;2023-03-01T10:30:22;2.60;99.90
1383;DHT22;685;47.196;11.880;2023-03-01T10:32:54;2.50;99.90
1383;DHT22;685;47.196;11.880;2023-03-01T10:35:24;2.50;99.90
1383;DHT22;685;47.196;11.880;2023-03-01T10:38:03;2.60;99.90
1383;DHT22;685;47.196;11.880;2023-03-01T10:40:30;2.70;99.90
1383;DHT22;685;47.196;11.880;2023-03-01T10:42:59;2.90;99.90
1383;DHT22;685;47.196;11.880;2023-03-01T10:45:33;3.20;99.90
1383;DHT22;685;47.196;11.880;2023-03-01T10:48:12;3.30;99.90
1383;DHT22;685;47.196;11.880;2023-03-01T10:50:42;3.60;99.90
1383;DHT22;685;47.196;11.880;2023-03-01T10:53:32;3.80;99.90
1383;DHT22;685;47.196;11.880;2023-03-01T10:56:01;3.80;99.90
1383;DHT22;685;47.196;11.880;2023-03-01T10:58:30;3.70;99.90
1383;DHT22;685;47.196;11.880;2023-03-01T11:00:58;3.50;99.90
1383;DHT22;685;47.196;11.880;2023-03-01T11:03:28;3.50;99.90
1383;DHT22;685;47.196;11.880;2023-03-01T11:06:03;3.50;99.90
1383;DHT22;685;47.196;11.880;2023-03-01T11:08:41;3.60;99.90
1383;DHT22;685;47.196;11.880;2023-03-01T11:11:29;3.70;99.90
1383;DHT22;685;47.196;11.880;2023-03-01T11:13:59;3.80;99.90
1383;DHT22;685;47.196;11.880;2023-03-01T11:16:31;3.70;99.90
1383;DHT22;685;47.196;11.880;2023-03-01T11:19:03;3.70;99.90
1383;DHT22;685;47.196;11.880;2023-03-01T11:21:33;3.90;99.90
1383;DHT22;685;47.196;11.880;2023-03-01T11:24:02;3.70;99.90
1383;DHT22;685;47.196;11.880;2023-03-01T11:26:31;3.70;99.90
1383;DHT22;685;47.196;11.880;2023-03-01T11:29:05;3.80;99.90
1383;DHT22;685;47.196;11.880;2023-03-01T11:31:34;3.80;99.90
1383;DHT22;685;47.196;11.880;2023-03-01T11:34:09;3.80;99.90
1383;DHT22;685;47.196;11.880;2023-03-01T11:36:42;4.00;99.90
1383;DHT22;685;47.196;11.880;2023-03-01T11:39:20;4.10;99.90
1383;DHT22;685;47.196;11.880;2023-03-01T11:41:52;4.10;99.90
1383;DHT22;685;47.196;11.880;2023-03-01T11:44:24;4.40;99.90
1383;DHT22;685;47.196;11.880;2023-03-01T11:47:09;4.40;99.90
1383;DHT22;685;47.196;11.880;2023-03-01T11:50:07;4.50;99.90
1383;DHT22;685;47.196;11.880;2023-03-01T11:52:46;4.50;99.90
1383;DHT22;685;47.196;11.880;2023-03-01T11:55:23;4.50;99.90
1383;DHT22;685;47.196;11.880;2023-03-01T11:58:14;4.50;99.90
1383;DHT22;685;47.196;11.880;2023-03-01T12:00:56;4.70;99.90
1383;DHT22;685;47.196;11.880;2023-03-01T12:03:32;4.60;99.90
1383;DHT22;685;47.196;11.880;2023-03-01T12:06:20;4.80;99.90
1383;DHT22;685;47.196;11.880;2023-03-01T12:08:58;5.00;99.90
1383;DHT22;685;47.196;11.880;2023-03-01T12:11:39;5.00;99.90
1383;DHT22;685;47.196;11.880;2023-03-01T12:14:29;5.00;99.90
1383;DHT22;685;47.196;11.880;2023-03-01T12:17:12;5.00;99.90
1383;DHT22;685;47.196;11.880;2023-03-01T12:20:01;4.90;99.90
1383;DHT22;685;47.196;11.880;2023-03-01T12:22:35;5.00;99.90
1383;DHT22;685;47.196;11.880;2023-03-01T12:25:21;5.10;99.90
1383;DHT22;685;47.196;11.880;2023-03-01T12:31:13;5.10;99.90
1383;DHT22;685;47.196;11.880;2023-03-01T12:33:50;5.00;99.90
1383;DHT22;685;47.196;11.880;2023-03-01T12:36:36;4.90;99.90
1383;DHT22;685;47.196;11.880;2023-03-01T12:39:21;4.90;99.90
1383;DHT22;685;47.196;11.880;2023-03-01T12:41:58;4.90;99.90
1383;DHT22;685;47.196;11.880;2023-03-01T12:44:42;4.90;99.90
1383;DHT22;685;47.196;11.880;2023-03-01T12:47:31;5.10;99.90
1383;DHT22;685;47.196;11.880;2023-03-01T12:50:04;5.10;99.90
1383;DHT22;685;47.196;11.880;2023-03-01T12:52:38;5.00;99.90
1383;DHT22;685;47.196;11.880;2023-03-01T12:55:19;4.90;99.90
1383;DHT22;685;47.196;11.880;2023-03-01T12:57:57;4.90;99.90
1383;DHT22;685;47.196;11.880;2023-03-01T13:00:30;5.20;99.90
1383;DHT22;685;47.196;11.880;2023-03-01T13:03:06;5.50;99.90
1383;DHT22;685;47.196;11.880;2023-03-01T13:05:45;5.60;99.90
1383;DHT22;685;47.196;11.880;2023-03-01T13:08:20;5.60;99.90
1383;DHT22;685;47.196;11.880;2023-03-01T13:10:51;5.60;99.90
1383;DHT22;685;47.196;11.880;2023-03-01T13:13:25;5.60;99.90
1383;DHT22;685;47.196;11.880;2023-03-01T13:15:53;5.60;99.90
1383;DHT22;685;47.196;11.880;2023-03-01T13:18:32;5.60;99.90
1383;DHT22;685;47.196;11.880;2023-03-01T13:21:01;5.60;99.90
1383;DHT22;685;47.196;11.880;2023-03-01T13:23:32;5.70;99.90
1383;DHT22;685;47.196;11.880;2023-03-01T13:26:03;5.80;99.90
1383;DHT22;685;47.196;11.880;2023-03-01T13:28:50;6.10;99.90
1383;DHT22;685;47.196;11.880;2023-03-01T13:34:58;6.10;99.90
1383;DHT22;685;47.196;11.880;2023-03-01T13:37:35;6.00;99.90
1383;DHT22;685;47.196;11.880;2023-03-01T13:42:49;6.00;99.90
1383;DHT22;685;47.196;11.880;2023-03-01T13:45:21;6.00;99.90
1383;DHT22;685;47.196;11.880;2023-03-01T13:47:52;6.00;99.90
1383;DHT22;685;47.196;11.880;2023-03-01T13:50:23;6.20;99.90
1383;DHT22;685;47.196;11.880;2023-03-01T13:52:54;6.40;99.90
1383;DHT22;685;47.196;11.880;2023-03-01T13:55:26;6.20;99.90
1383;DHT22;685;47.196;11.880;2023-03-01T13:57:56;6.10;99.90
1383;DHT22;685;47.196;11.880;2023-03-01T14:00:38;6.20;99.90
1383;DHT22;685;47.196;11.880;2023-03-01T14:03:10;6.20;99.90
1383;DHT22;685;47.196;11.880;2023-03-01T14:05:40;6.20;99.90
1383;DHT22;685;47.196;11.880;2023-03-01T14:08:19;6.40;99.90
1383;DHT22;685;47.196;11.880;2023-03-01T14:11:00;6.40;99.90
1383;DHT22;685;47.196;11.880;2023-03-01T14:13:41;6.60;99.90
1383;DHT22;685;47.196;11.880;2023-03-01T14:16:30;6.50;99.90
1383;DHT22;685;47.196;11.880;2023-03-01T14:19:09;6.30;99.90
1383;DHT22;685;47.196;11.880;2023-03-01T14:21:39;6.40;99.90
1383;DHT22;685;47.196;11.880;2023-03-01T14:24:13;6.30;99.90
1383;DHT22;685;47.196;11.880;2023-03-01T14:26:42;6.50;99.90
1383;DHT22;685;47.196;11.880;2023-03-01T14:29:24;6.50;99.90
1383;DHT22;685;47.196;11.880;2023-03-01T14:31:52;6.50;99.90
1383;DHT22;685;47.196;11.880;2023-03-01T14:34:21;6.50;99.90
1383;DHT22;685;47.196;11.880;2023-03-01T14:36:48;6.40;99.90
1383;DHT22;685;47.196;11.880;2023-03-01T14:39:20;6.40;99.90
1383;DHT22;685;47.196;11.880;2023-03-01T14:41:51;6.50;99.90
1383;DHT22;685;47.196;11.880;2023-03-01T14:44:21;6.50;99.90
1383;DHT22;685;47.196;11.880;2023-03-01T14:46:54;6.50;99.90
1383;DHT22;685;47.196;11.880;2023-03-01T14:49:25;6.40;99.90
1383;DHT22;685;47.196;11.880;2023-03-01T14:51:56;6.40;99.90
1383;DHT22;685;47.196;11.880;2023-03-01T14:54:26;6.40;99.90
1383;DHT22;685;47.196;11.880;2023-03-01T14:56:57;6.40;99.90
1383;DHT22;685;47.196;11.880;2023-03-01T14:59:25;6.40;99.90
1383;DHT22;685;47.196;11.880;2023-03-01T15:01:55;6.20;99.90
1383;DHT22;685;47.196;11.880;2023-03-01T15:04:24;6.20;99.90
1383;DHT22;685;47.196;11.880;2023-03-01T15:06:52;6.10;99.90
1383;DHT22;685;47.196;11.880;2023-03-01T15:09:19;6.00;99.90
1383;DHT22;685;47.196;11.880;2023-03-01T15:11:47;5.90;99.90
1383;DHT22;685;47.196;11.880;2023-03-01T15:14:39;5.90;99.90
1383;DHT22;685;47.196;11.880;2023-03-01T15:17:30;5.80;99.90
1383;DHT22;685;47.196;11.880;2023-03-01T15:19:57;5.80;99.90
1383;DHT22;685;47.196;11.880;2023-03-01T15:22:26;5.70;99.90
1383;DHT22;685;47.196;11.880;2023-03-01T15:24:53;5.60;99.90
1383;DHT22;685;47.196;11.880;2023-03-01T15:27:22;5.60;99.90
1383;DHT22;685;47.196;11.880;2023-03-01T15:29:52;5.50;99.90
1383;DHT22;685;47.196;11.880;2023-03-01T15:32:28;5.50;99.90
1383;DHT22;685;47.196;11.880;2023-03-01T15:34:56;5.50;99.90
1383;DHT22;685;47.196;11.880;2023-03-01T15:37:45;5.50;99.90
1383;DHT22;685;47.196;11.880;2023-03-01T15:40:21;5.50;99.90
1383;DHT22;685;47.196;11.880;2023-03-01T15:42:50;5.40;99.90
1383;DHT22;685;47.196;11.880;2023-03-01T15:45:25;5.40;99.90
1383;DHT22;685;47.196;11.880;2023-03-01T15:47:56;5.40;99.90
1383;DHT22;685;47.196;11.880;2023-03-01T15:50:26;5.50;99.90
1383;DHT22;685;47.196;11.880;2023-03-01T15:52:54;5.40;99.90
1383;DHT22;685;47.196;11.880;2023-03-01T15:55:24;5.30;99.90
1383;DHT22;685;47.196;11.880;2023-03-01T15:57:58;5.30;99.90
1383;DHT22;685;47.196;11.880;2023-03-01T16:00:27;5.20;99.90
1383;DHT22;685;47.196;11.880;2023-03-01T16:02:55;5.20;99.90
1383;DHT22;685;47.196;11.880;2023-03-01T16:05:25;5.20;99.90
1383;DHT22;685;47.196;11.880;2023-03-01T16:07:53;5.20;99.90
1383;DHT22;685;47.196;11.880;2023-03-01T16:10:20;5.10;99.90
1383;DHT22;685;47.196;11.880;2023-03-01T16:12:47;5.10;99.90
1383;DHT22;685;47.196;11.880;2023-03-01T16:15:18;5.10;99.90
1383;DHT22;685;47.196;11.880;2023-03-01T16:17:45;5.00;99.90
1383;DHT22;685;47.196;11.880;2023-03-01T16:20:14;5.00;99.90
1383;DHT22;685;47.196;11.880;2023-03-01T16:22:41;4.90;99.90
1383;DHT22;685;47.196;11.880;2023-03-01T16:25:09;4.90;99.90
1383;DHT22;685;47.196;11.880;2023-03-01T16:27:38;4.90;99.90
1383;DHT22;685;47.196;11.880;2023-03-01T16:30:06;4.90;99.90
1383;DHT22;685;47.196;11.880;2023-03-01T16:32:33;4.80;99.90
1383;DHT22;685;47.196;11.880;2023-03-01T16:35:04;4.80;99.90
1383;DHT22;685;47.196;11.880;2023-03-01T16:37:34;4.70;99.90
1383;DHT22;685;47.196;11.880;2023-03-01T16:40:02;4.60;99.90